sensor_id;sensor_type;location;lat;lon;timestamp;pressure;altitude;pressure_sealevel;temperature;humidity
69982;BME280;57319;56.274;43.980;2024-03-22T00:02:05;100179.50;;;-0.86;55.60
69982;BME280;57319;56.274;43.980;2024-03-22T00:04:31;100179.41;;;-0.89;55.96
69982;BME280;57319;56.274;43.980;2024-03-22T00:06:57;100174.97;;;-0.95;57.41
69982;BME280;57319;56.274;43.980;2024-03-22T00:09:23;100170.94;;;-0.90;56.29
69982;BME280;57319;56.274;43.980;2024-03-22T00:11:49;100174.47;;;-0.86;55.95
69982;BME280;57319;56.274;43.980;2024-03-22T00:14:14;100170.81;;;-0.93;61.57
69982;BME280;57319;56.274;43.980;2024-03-22T00:16:40;100177.34;;;-0.98;58.63
69982;BME280;57319;56.274;43.980;2024-03-22T00:19:06;100176.38;;;-1.01;58.74
69982;BME280;57319;56.274;43.980;2024-03-22T00:21:31;100174.59;;;-1.04;58.45
69982;BME280;57319;56.274;43.980;2024-03-22T00:23:58;100173.69;;;-1.05;59.13
69982;BME280;57319;56.274;43.980;2024-03-22T00:26:24;100176.56;;;-0.97;57.40
69982;BME280;57319;56.274;43.980;2024-03-22T00:28:49;100167.56;;;-1.11;60.41
69982;BME280;57319;56.274;43.980;2024-03-22T00:31:16;100171.00;;;-1.09;59.21
69982;BME280;57319;56.274;43.980;2024-03-22T00:33:43;100165.50;;;-1.20;60.69
69982;BME280;57319;56.274;43.980;2024-03-22T00:36:09;100164.72;;;-1.19;60.73
69982;BME280;57319;56.274;43.980;2024-03-22T00:38:35;100165.44;;;-1.22;61.09
69982;BME280;57319;56.274;43.980;2024-03-22T00:41:00;100166.91;;;-1.27;61.02
69982;BME280;57319;56.274;43.980;2024-03-22T00:43:26;100166.31;;;-1.41;62.69
69982;BME280;57319;56.274;43.980;2024-03-22T00:45:52;100163.06;;;-1.38;61.00
69982;BME280;57319;56.274;43.980;2024-03-22T00:48:18;100163.81;;;-1.41;60.36
69982;BME280;57319;56.274;43.980;2024-03-22T00:50:44;100162.06;;;-1.42;61.35
69982;BME280;57319;56.274;43.980;2024-03-22T00:53:09;100169.28;;;-1.51;62.92
69982;BME280;57319;56.274;43.980;2024-03-22T00:55:35;100163.75;;;-1.42;60.84
69982;BME280;57319;56.274;43.980;2024-03-22T00:58:01;100170.53;;;-1.41;61.77
69982;BME280;57319;56.274;43.980;2024-03-22T01:00:27;100165.88;;;-1.32;60.32
69982;BME280;57319;56.274;43.980;2024-03-22T01:02:52;100161.06;;;-1.26;61.05
69982;BME280;57319;56.274;43.980;2024-03-22T01:05:24;100170.31;;;-1.26;60.65
69982;BME280;57319;56.274;43.980;2024-03-22T01:07:51;100159.63;;;-1.40;63.30
69982;BME280;57319;56.274;43.980;2024-03-22T01:10:17;100163.63;;;-1.45;62.91
69982;BME280;57319;56.274;43.980;2024-03-22T01:12:44;100154.66;;;-1.39;61.54
69982;BME280;57319;56.274;43.980;2024-03-22T01:15:09;100150.31;;;-1.41;61.88
69982;BME280;57319;56.274;43.980;2024-03-22T01:17:35;100155.25;;;-1.44;64.58
69982;BME280;57319;56.274;43.980;2024-03-22T01:20:01;100153.41;;;-1.48;63.88
69982;BME280;57319;56.274;43.980;2024-03-22T01:22:29;100158.28;;;-1.51;63.91
69982;BME280;57319;56.274;43.980;2024-03-22T01:24:55;100148.25;;;-1.50;62.97
69982;BME280;57319;56.274;43.980;2024-03-22T01:27:21;100149.81;;;-1.54;64.21
69982;BME280;57319;56.274;43.980;2024-03-22T01:29:47;100139.72;;;-1.54;63.04
69982;BME280;57319;56.274;43.980;2024-03-22T01:32:13;100143.63;;;-1.60;64.28
69982;BME280;57319;56.274;43.980;2024-03-22T01:34:39;100147.06;;;-1.58;63.59
69982;BME280;57319;56.274;43.980;2024-03-22T01:37:04;100145.03;;;-1.67;66.09
69982;BME280;57319;56.274;43.980;2024-03-22T01:39:36;100147.44;;;-1.70;64.86
69982;BME280;57319;56.274;43.980;2024-03-22T01:42:02;100142.25;;;-1.73;65.42
69982;BME280;57319;56.274;43.980;2024-03-22T01:44:28;100137.94;;;-1.76;65.02
69982;BME280;57319;56.274;43.980;2024-03-22T01:46:55;100132.00;;;-1.76;65.85
69982;BME280;57319;56.274;43.980;2024-03-22T01:49:22;100131.41;;;-1.71;65.47
69982;BME280;57319;56.274;43.980;2024-03-22T01:51:50;100134.94;;;-1.67;65.24
69982;BME280;57319;56.274;43.980;2024-03-22T01:54:16;100136.31;;;-1.74;67.14
69982;BME280;57319;56.274;43.980;2024-03-22T01:56:42;100133.06;;;-1.71;66.00
69982;BME280;57319;56.274;43.980;2024-03-22T01:59:08;100130.50;;;-1.73;67.21
69982;BME280;57319;56.274;43.980;2024-03-22T02:01:35;100130.56;;;-1.71;66.43
69982;BME280;57319;56.274;43.980;2024-03-22T02:04:01;100125.44;;;-1.73;65.69
69982;BME280;57319;56.274;43.980;2024-03-22T02:06:27;100130.50;;;-1.73;65.95
69982;BME280;57319;56.274;43.980;2024-03-22T02:08:52;100123.53;;;-1.78;65.76
69982;BME280;57319;56.274;43.980;2024-03-22T02:11:19;100123.13;;;-1.88;67.46
69982;BME280;57319;56.274;43.980;2024-03-22T02:13:45;100131.16;;;-1.96;68.25
69982;BME280;57319;56.274;43.980;2024-03-22T02:16:11;100118.88;;;-1.89;67.28
69982;BME280;57319;56.274;43.980;2024-03-22T02:18:37;100119.03;;;-1.85;67.34
69982;BME280;57319;56.274;43.980;2024-03-22T02:21:03;100122.44;;;-1.83;66.31
69982;BME280;57319;56.274;43.980;2024-03-22T02:23:35;100117.69;;;-1.77;65.87
69982;BME280;57319;56.274;43.980;2024-03-22T02:26:02;100117.75;;;-1.76;66.24
69982;BME280;57319;56.274;43.980;2024-03-22T02:28:28;100112.63;;;-1.77;66.52
69982;BME280;57319;56.274;43.980;2024-03-22T02:30:54;100108.25;;;-1.81;66.58
69982;BME280;57319;56.274;43.980;2024-03-22T02:33:20;100113.38;;;-1.80;66.29
69982;BME280;57319;56.274;43.980;2024-03-22T02:35:49;100111.34;;;-1.87;66.73
69982;BME280;57319;56.274;43.980;2024-03-22T02:38:15;100107.31;;;-1.83;66.16
69982;BME280;57319;56.274;43.980;2024-03-22T02:40:43;100107.44;;;-1.80;66.84
69982;BME280;57319;56.274;43.980;2024-03-22T02:43:09;100102.25;;;-1.83;66.35
69982;BME280;57319;56.274;43.980;2024-03-22T02:45:34;100104.97;;;-1.79;66.42
69982;BME280;57319;56.274;43.980;2024-03-22T02:48:00;100098.47;;;-1.74;66.09
69982;BME280;57319;56.274;43.980;2024-03-22T02:50:26;100101.13;;;-1.71;65.62
69982;BME280;57319;56.274;43.980;2024-03-22T02:52:51;100100.38;;;-1.68;65.41
69982;BME280;57319;56.274;43.980;2024-03-22T02:55:17;100091.84;;;-1.72;65.85
69982;BME280;57319;56.274;43.980;2024-03-22T02:57:43;100098.53;;;-1.72;66.32
69982;BME280;57319;56.274;43.980;2024-03-22T03:00:09;100099.34;;;-1.73;65.49
69982;BME280;57319;56.274;43.980;2024-03-22T03:02:35;100097.69;;;-1.73;66.21
69982;BME280;57319;56.274;43.980;2024-03-22T03:05:01;100099.19;;;-1.76;66.39
69982;BME280;57319;56.274;43.980;2024-03-22T03:07:29;100106.41;;;-1.85;66.19
69982;BME280;57319;56.274;43.980;2024-03-22T03:09:55;100101.00;;;-1.93;67.00
69982;BME280;57319;56.274;43.980;2024-03-22T03:12:21;100107.13;;;-1.88;65.20
69982;BME280;57319;56.274;43.980;2024-03-22T03:14:47;100102.75;;;-1.92;66.57
69982;BME280;57319;56.274;43.980;2024-03-22T03:17:12;100106.31;;;-1.87;65.21
69982;BME280;57319;56.274;43.980;2024-03-22T03:19:38;100104.84;;;-1.82;64.09
69982;BME280;57319;56.274;43.980;2024-03-22T03:22:04;100110.63;;;-1.84;64.22
69982;BME280;57319;56.274;43.980;2024-03-22T03:24:30;100105.56;;;-1.84;63.59
69982;BME280;57319;56.274;43.980;2024-03-22T03:26:56;100112.13;;;-1.90;63.47
69982;BME280;57319;56.274;43.980;2024-03-22T03:29:22;100106.53;;;-1.82;63.04
69982;BME280;57319;56.274;43.980;2024-03-22T03:31:47;100106.41;;;-1.85;62.45
69982;BME280;57319;56.274;43.980;2024-03-22T03:34:14;100102.59;;;-1.76;61.83
69982;BME280;57319;56.274;43.980;2024-03-22T03:36:40;100104.41;;;-1.73;62.08
69982;BME280;57319;56.274;43.980;2024-03-22T03:39:06;100099.41;;;-1.72;62.41
69982;BME280;57319;56.274;43.980;2024-03-22T03:41:31;100099.25;;;-1.75;61.87
69982;BME280;57319;56.274;43.980;2024-03-22T03:43:57;100105.25;;;-1.73;61.61
69982;BME280;57319;56.274;43.980;2024-03-22T03:46:23;100100.25;;;-1.71;61.23
69982;BME280;57319;56.274;43.980;2024-03-22T03:48:48;100097.69;;;-1.73;61.77
69982;BME280;57319;56.274;43.980;2024-03-22T03:51:14;100094.38;;;-1.72;61.82
69982;BME280;57319;56.274;43.980;2024-03-22T03:53:40;100088.78;;;-1.84;61.47
69982;BME280;57319;56.274;43.980;2024-03-22T03:56:05;100085.78;;;-1.75;61.38
69982;BME280;57319;56.274;43.980;2024-03-22T03:58:31;100086.13;;;-1.67;61.14
69982;BME280;57319;56.274;43.980;2024-03-22T04:00:56;100088.75;;;-1.64;60.36
69982;BME280;57319;56.274;43.980;2024-03-22T04:03:23;100076.31;;;-1.60;60.22
69982;BME280;57319;56.274;43.980;2024-03-22T04:05:59;100081.06;;;-1.67;59.66
69982;BME280;57319;56.274;43.980;2024-03-22T04:08:28;100073.06;;;-1.57;59.67
69982;BME280;57319;56.274;43.980;2024-03-22T04:10:56;100078.13;;;-1.57;59.28
69982;BME280;57319;56.274;43.980;2024-03-22T04:13:23;100080.41;;;-1.42;58.74
69982;BME280;57319;56.274;43.980;2024-03-22T04:15:49;100077.31;;;-1.35;58.35
69982;BME280;57319;56.274;43.980;2024-03-22T04:18:15;100082.53;;;-1.32;58.78
69982;BME280;57319;56.274;43.980;2024-03-22T04:20:41;100078.56;;;-1.25;57.92
69982;BME280;57319;56.274;43.980;2024-03-22T04:23:06;100073.59;;;-1.24;57.55
69982;BME280;57319;56.274;43.980;2024-03-22T04:25:32;100083.03;;;-1.20;57.44
69982;BME280;57319;56.274;43.980;2024-03-22T04:27:57;100081.22;;;-1.22;58.51
69982;BME280;57319;56.274;43.980;2024-03-22T04:30:23;100079.88;;;-1.14;57.64
69982;BME280;57319;56.274;43.980;2024-03-22T04:32:49;100080.91;;;-1.09;58.15
69982;BME280;57319;56.274;43.980;2024-03-22T04:35:15;100084.34;;;-1.07;58.03
69982;BME280;57319;56.274;43.980;2024-03-22T04:37:40;100075.25;;;-1.03;57.26
69982;BME280;57319;56.274;43.980;2024-03-22T04:40:07;100072.09;;;-0.97;57.68
69982;BME280;57319;56.274;43.980;2024-03-22T04:42:35;100075.53;;;-0.95;57.11
69982;BME280;57319;56.274;43.980;2024-03-22T04:45:01;100070.47;;;-0.95;57.16
69982;BME280;57319;56.274;43.980;2024-03-22T04:47:27;100074.91;;;-0.90;57.00
69982;BME280;57319;56.274;43.980;2024-03-22T04:49:52;100069.84;;;-0.90;56.36
69982;BME280;57319;56.274;43.980;2024-03-22T04:52:18;100070.41;;;-0.97;56.37
69982;BME280;57319;56.274;43.980;2024-03-22T04:54:44;100071.69;;;-0.86;55.76
69982;BME280;57319;56.274;43.980;2024-03-22T04:57:09;100075.94;;;-0.84;55.58
69982;BME280;57319;56.274;43.980;2024-03-22T04:59:35;100076.88;;;-0.82;55.80
69982;BME280;57319;56.274;43.980;2024-03-22T05:02:00;100081.34;;;-0.75;55.93
69982;BME280;57319;56.274;43.980;2024-03-22T05:04:26;100078.16;;;-0.71;56.78
69982;BME280;57319;56.274;43.980;2024-03-22T05:06:52;100078.31;;;-0.66;55.57
69982;BME280;57319;56.274;43.980;2024-03-22T05:09:17;100069.13;;;-0.64;55.03
69982;BME280;57319;56.274;43.980;2024-03-22T05:11:43;100075.78;;;-0.66;55.16
69982;BME280;57319;56.274;43.980;2024-03-22T05:14:09;100077.50;;;-0.65;55.18
69982;BME280;57319;56.274;43.980;2024-03-22T05:16:34;100070.13;;;-0.59;55.48
69982;BME280;57319;56.274;43.980;2024-03-22T05:19:00;100073.50;;;-0.60;55.17
69982;BME280;57319;56.274;43.980;2024-03-22T05:21:26;100070.22;;;-0.58;55.27
69982;BME280;57319;56.274;43.980;2024-03-22T05:23:51;100073.06;;;-0.48;55.09
69982;BME280;57319;56.274;43.980;2024-03-22T05:26:17;100077.34;;;-0.47;54.25
69982;BME280;57319;56.274;43.980;2024-03-22T05:28:46;100079.97;;;-0.44;54.54
69982;BME280;57319;56.274;43.980;2024-03-22T05:31:11;100069.78;;;-0.46;54.03
69982;BME280;57319;56.274;43.980;2024-03-22T05:33:37;100069.34;;;-0.36;54.11
69982;BME280;57319;56.274;43.980;2024-03-22T05:36:03;100062.94;;;-0.26;53.82
69982;BME280;57319;56.274;43.980;2024-03-22T05:38:29;100065.72;;;-0.18;53.57
69982;BME280;57319;56.274;43.980;2024-03-22T05:40:55;100067.66;;;-0.12;53.10
69982;BME280;57319;56.274;43.980;2024-03-22T05:43:21;100061.06;;;-0.07;53.17
69982;BME280;57319;56.274;43.980;2024-03-22T05:45:47;100061.06;;;-0.07;52.60
69982;BME280;57319;56.274;43.980;2024-03-22T05:48:13;100052.72;;;-0.05;52.53
69982;BME280;57319;56.274;43.980;2024-03-22T05:50:40;100057.81;;;-0.03;52.10
69982;BME280;57319;56.274;43.980;2024-03-22T05:53:06;100057.34;;;0.07;52.22
69982;BME280;57319;56.274;43.980;2024-03-22T05:55:32;100056.41;;;0.05;52.60
69982;BME280;57319;56.274;43.980;2024-03-22T05:57:58;100056.09;;;0.20;52.01
69982;BME280;57319;56.274;43.980;2024-03-22T06:00:23;100056.47;;;0.31;52.02
69982;BME280;57319;56.274;43.980;2024-03-22T06:02:50;100053.56;;;0.20;53.00
69982;BME280;57319;56.274;43.980;2024-03-22T06:05:15;100051.84;;;0.45;51.93
69982;BME280;57319;56.274;43.980;2024-03-22T06:07:43;100052.19;;;0.56;51.53
69982;BME280;57319;56.274;43.980;2024-03-22T06:10:09;100043.09;;;0.61;50.81
69982;BME280;57319;56.274;43.980;2024-03-22T06:12:38;100044.03;;;0.64;50.53
69982;BME280;57319;56.274;43.980;2024-03-22T06:15:04;100053.63;;;0.47;51.13
69982;BME280;57319;56.274;43.980;2024-03-22T06:17:32;100045.84;;;0.68;51.22
69982;BME280;57319;56.274;43.980;2024-03-22T06:19:59;100036.19;;;0.82;51.35
69982;BME280;57319;56.274;43.980;2024-03-22T06:26:47;100042.50;;;0.97;50.09
69982;BME280;57319;56.274;43.980;2024-03-22T06:29:15;100038.59;;;1.07;50.05
69982;BME280;57319;56.274;43.980;2024-03-22T06:31:42;100038.75;;;1.11;50.09
69982;BME280;57319;56.274;43.980;2024-03-22T06:34:08;100039.19;;;0.98;51.31
69982;BME280;57319;56.274;43.980;2024-03-22T06:36:34;100034.03;;;1.24;50.61
69982;BME280;57319;56.274;43.980;2024-03-22T06:39:00;100033.19;;;1.25;50.02
69982;BME280;57319;56.274;43.980;2024-03-22T06:41:27;100033.44;;;1.32;49.54
69982;BME280;57319;56.274;43.980;2024-03-22T06:43:53;100031.38;;;1.49;48.72
69982;BME280;57319;56.274;43.980;2024-03-22T06:46:19;100031.69;;;1.60;49.03
69982;BME280;57319;56.274;43.980;2024-03-22T06:48:45;100030.94;;;1.64;48.62
69982;BME280;57319;56.274;43.980;2024-03-22T06:51:12;100031.94;;;1.69;47.95
69982;BME280;57319;56.274;43.980;2024-03-22T06:53:37;100028.09;;;1.84;47.31
69982;BME280;57319;56.274;43.980;2024-03-22T06:56:04;100028.31;;;1.92;46.98
69982;BME280;57319;56.274;43.980;2024-03-22T06:58:29;100026.16;;;1.75;46.82
69982;BME280;57319;56.274;43.980;2024-03-22T07:00:55;100026.97;;;1.74;46.21
69982;BME280;57319;56.274;43.980;2024-03-22T07:03:21;100024.34;;;2.03;46.04
69982;BME280;57319;56.274;43.980;2024-03-22T07:05:49;100028.75;;;2.09;44.79
69982;BME280;57319;56.274;43.980;2024-03-22T07:08:15;100023.13;;;2.20;44.11
69982;BME280;57319;56.274;43.980;2024-03-22T07:10:41;100025.09;;;2.31;44.39
69982;BME280;57319;56.274;43.980;2024-03-22T07:13:07;100012.75;;;2.13;43.75
69982;BME280;57319;56.274;43.980;2024-03-22T07:15:34;100014.28;;;2.40;44.54
69982;BME280;57319;56.274;43.980;2024-03-22T07:18:05;100012.84;;;2.51;44.09
69982;BME280;57319;56.274;43.980;2024-03-22T07:20:32;100010.31;;;2.51;42.69
69982;BME280;57319;56.274;43.980;2024-03-22T07:22:57;100010.56;;;2.62;41.71
69982;BME280;57319;56.274;43.980;2024-03-22T07:25:23;100007.22;;;2.63;41.50
69982;BME280;57319;56.274;43.980;2024-03-22T07:27:53;100009.16;;;2.75;41.96
69982;BME280;57319;56.274;43.980;2024-03-22T07:30:19;100000.72;;;2.76;41.67
69982;BME280;57319;56.274;43.980;2024-03-22T07:32:47;100001.63;;;2.78;41.20
69982;BME280;57319;56.274;43.980;2024-03-22T07:35:13;100004.50;;;2.92;40.97
69982;BME280;57319;56.274;43.980;2024-03-22T07:37:38;100001.31;;;3.02;41.34
69982;BME280;57319;56.274;43.980;2024-03-22T07:40:05;100004.53;;;2.95;40.59
69982;BME280;57319;56.274;43.980;2024-03-22T07:42:31;99998.94;;;3.10;40.66
69982;BME280;57319;56.274;43.980;2024-03-22T07:44:56;99994.13;;;3.22;40.52
69982;BME280;57319;56.274;43.980;2024-03-22T07:47:22;99989.19;;;3.30;39.39
69982;BME280;57319;56.274;43.980;2024-03-22T07:49:48;99989.56;;;3.07;39.29
69982;BME280;57319;56.274;43.980;2024-03-22T07:52:13;99986.81;;;3.39;39.53
69982;BME280;57319;56.274;43.980;2024-03-22T07:54:39;99981.75;;;3.40;39.02
69982;BME280;57319;56.274;43.980;2024-03-22T07:57:04;99978.34;;;3.38;39.33
69982;BME280;57319;56.274;43.980;2024-03-22T07:59:30;99976.63;;;3.39;39.63
69982;BME280;57319;56.274;43.980;2024-03-22T08:01:56;99979.34;;;3.47;39.21
69982;BME280;57319;56.274;43.980;2024-03-22T08:04:23;99966.19;;;3.69;38.36
69982;BME280;57319;56.274;43.980;2024-03-22T08:06:50;99978.22;;;3.77;39.07
69982;BME280;57319;56.274;43.980;2024-03-22T08:09:17;99977.44;;;3.79;38.28
69982;BME280;57319;56.274;43.980;2024-03-22T08:11:44;99970.63;;;3.78;39.26
69982;BME280;57319;56.274;43.980;2024-03-22T08:14:10;99962.22;;;3.38;38.58
69982;BME280;57319;56.274;43.980;2024-03-22T08:16:36;99966.38;;;3.80;38.47
69982;BME280;57319;56.274;43.980;2024-03-22T08:19:01;99958.81;;;3.83;39.73
69982;BME280;57319;56.274;43.980;2024-03-22T08:21:27;99959.91;;;3.50;38.41
69982;BME280;57319;56.274;43.980;2024-03-22T08:23:53;99960.53;;;3.38;39.07
69982;BME280;57319;56.274;43.980;2024-03-22T08:26:19;99952.03;;;3.84;39.44
69982;BME280;57319;56.274;43.980;2024-03-22T08:28:46;99953.19;;;4.00;39.33
69982;BME280;57319;56.274;43.980;2024-03-22T08:31:12;99949.78;;;4.02;38.77
69982;BME280;57319;56.274;43.980;2024-03-22T08:33:38;99942.34;;;4.13;37.85
69982;BME280;57319;56.274;43.980;2024-03-22T08:36:04;99937.41;;;4.22;37.77
69982;BME280;57319;56.274;43.980;2024-03-22T08:38:30;99934.59;;;4.07;37.11
69982;BME280;57319;56.274;43.980;2024-03-22T08:40:55;99940.94;;;4.31;37.28
69982;BME280;57319;56.274;43.980;2024-03-22T08:43:21;99927.50;;;4.41;37.27
69982;BME280;57319;56.274;43.980;2024-03-22T08:45:48;99931.03;;;4.49;36.39
69982;BME280;57319;56.274;43.980;2024-03-22T08:48:14;99934.53;;;4.57;36.94
69982;BME280;57319;56.274;43.980;2024-03-22T08:50:42;99922.88;;;4.75;36.94
69982;BME280;57319;56.274;43.980;2024-03-22T08:53:08;99921.88;;;4.64;36.31
69982;BME280;57319;56.274;43.980;2024-03-22T08:55:34;99918.56;;;4.71;37.17
69982;BME280;57319;56.274;43.980;2024-03-22T08:57:59;99919.34;;;4.65;35.70
69982;BME280;57319;56.274;43.980;2024-03-22T09:00:25;99912.59;;;4.67;35.97
69982;BME280;57319;56.274;43.980;2024-03-22T09:02:52;99908.63;;;4.91;36.93
69982;BME280;57319;56.274;43.980;2024-03-22T09:05:17;99903.75;;;5.09;35.66
69982;BME280;57319;56.274;43.980;2024-03-22T09:07:44;99899.66;;;5.21;35.40
69982;BME280;57319;56.274;43.980;2024-03-22T09:10:11;99908.25;;;5.31;34.33
69982;BME280;57319;56.274;43.980;2024-03-22T09:12:37;99904.00;;;5.33;34.18
69982;BME280;57319;56.274;43.980;2024-03-22T09:15:03;99900.72;;;5.41;34.06
69982;BME280;57319;56.274;43.980;2024-03-22T09:17:30;99900.72;;;5.40;34.66
69982;BME280;57319;56.274;43.980;2024-03-22T09:19:56;99897.50;;;5.58;34.41
69982;BME280;57319;56.274;43.980;2024-03-22T09:22:21;99894.81;;;5.44;34.13
69982;BME280;57319;56.274;43.980;2024-03-22T09:24:47;99900.22;;;5.78;35.15
69982;BME280;57319;56.274;43.980;2024-03-22T09:27:13;99890.97;;;5.91;33.86
69982;BME280;57319;56.274;43.980;2024-03-22T09:29:38;99877.22;;;5.80;33.92
69982;BME280;57319;56.274;43.980;2024-03-22T09:32:04;99879.78;;;5.78;33.59
69982;BME280;57319;56.274;43.980;2024-03-22T09:34:30;99870.75;;;6.16;33.75
69982;BME280;57319;56.274;43.980;2024-03-22T09:36:57;99868.38;;;6.39;33.46
69982;BME280;57319;56.274;43.980;2024-03-22T09:39:22;99865.84;;;6.50;33.15
69982;BME280;57319;56.274;43.980;2024-03-22T09:41:50;99870.03;;;6.38;32.63
69982;BME280;57319;56.274;43.980;2024-03-22T09:44:18;99866.72;;;6.47;33.71
69982;BME280;57319;56.274;43.980;2024-03-22T09:46:46;99862.50;;;6.55;33.76
69982;BME280;57319;56.274;43.980;2024-03-22T09:49:13;99868.53;;;6.73;34.29
69982;BME280;57319;56.274;43.980;2024-03-22T09:51:43;99861.84;;;7.04;33.11
69982;BME280;57319;56.274;43.980;2024-03-22T09:54:10;99857.66;;;7.33;31.63
69982;BME280;57319;56.274;43.980;2024-03-22T09:56:38;99850.88;;;7.50;31.96
69982;BME280;57319;56.274;43.980;2024-03-22T09:59:05;99852.56;;;7.63;31.47
69982;BME280;57319;56.274;43.980;2024-03-22T10:01:32;99855.13;;;7.63;30.93
69982;BME280;57319;56.274;43.980;2024-03-22T10:04:00;99842.34;;;7.82;31.28
69982;BME280;57319;56.274;43.980;2024-03-22T10:06:25;99844.03;;;7.68;31.49
69982;BME280;57319;56.274;43.980;2024-03-22T10:08:51;99838.94;;;7.85;30.63
69982;BME280;57319;56.274;43.980;2024-03-22T10:11:17;99841.47;;;8.00;32.05
69982;BME280;57319;56.274;43.980;2024-03-22T10:13:47;99838.03;;;8.24;30.12
69982;BME280;57319;56.274;43.980;2024-03-22T10:16:16;99835.38;;;8.69;29.49
69982;BME280;57319;56.274;43.980;2024-03-22T10:18:42;99836.94;;;9.03;28.96
69982;BME280;57319;56.274;43.980;2024-03-22T10:21:08;99823.41;;;8.65;29.42
69982;BME280;57319;56.274;43.980;2024-03-22T10:23:33;99818.25;;;8.68;31.03
69982;BME280;57319;56.274;43.980;2024-03-22T10:26:00;99823.41;;;8.66;30.15
69982;BME280;57319;56.274;43.980;2024-03-22T10:28:26;99812.41;;;8.10;29.72
69982;BME280;57319;56.274;43.980;2024-03-22T10:30:52;99814.94;;;8.21;29.88
69982;BME280;57319;56.274;43.980;2024-03-22T10:33:20;99812.28;;;8.74;29.89
69982;BME280;57319;56.274;43.980;2024-03-22T10:35:52;99819.09;;;8.72;29.44
69982;BME280;57319;56.274;43.980;2024-03-22T10:38:20;99813.03;;;8.94;29.63
69982;BME280;57319;56.274;43.980;2024-03-22T10:40:47;99809.59;;;8.98;30.21
69982;BME280;57319;56.274;43.980;2024-03-22T10:43:14;99808.66;;;9.07;31.23
69982;BME280;57319;56.274;43.980;2024-03-22T10:45:41;99806.03;;;9.18;30.27
69982;BME280;57319;56.274;43.980;2024-03-22T10:48:10;99809.50;;;9.14;30.71
69982;BME280;57319;56.274;43.980;2024-03-22T10:50:41;99811.09;;;9.32;31.70
69982;BME280;57319;56.274;43.980;2024-03-22T10:53:16;99792.19;;;10.39;30.01
69982;BME280;57319;56.274;43.980;2024-03-22T10:55:46;99783.78;;;10.93;29.18
69982;BME280;57319;56.274;43.980;2024-03-22T10:58:17;99790.13;;;11.28;29.21
69982;BME280;57319;56.274;43.980;2024-03-22T11:00:43;99786.06;;;10.49;29.63
69982;BME280;57319;56.274;43.980;2024-03-22T11:03:10;99786.25;;;10.27;31.58
69982;BME280;57319;56.274;43.980;2024-03-22T11:05:55;99773.78;;;11.30;28.85
69982;BME280;57319;56.274;43.980;2024-03-22T11:08:25;99776.88;;;11.54;29.90
69982;BME280;57319;56.274;43.980;2024-03-22T11:10:52;99768.97;;;12.15;27.45
69982;BME280;57319;56.274;43.980;2024-03-22T11:13:18;99763.63;;;12.22;27.68
69982;BME280;57319;56.274;43.980;2024-03-22T11:15:44;99765.59;;;12.10;27.65
69982;BME280;57319;56.274;43.980;2024-03-22T11:18:12;99762.38;;;12.44;28.38
69982;BME280;57319;56.274;43.980;2024-03-22T11:20:38;99754.72;;;11.95;27.93
69982;BME280;57319;56.274;43.980;2024-03-22T11:23:05;99761.00;;;11.79;28.56
69982;BME280;57319;56.274;43.980;2024-03-22T11:25:32;99758.81;;;12.05;28.28
69982;BME280;57319;56.274;43.980;2024-03-22T11:27:58;99749.22;;;12.12;28.14
69982;BME280;57319;56.274;43.980;2024-03-22T11:30:29;99750.41;;;12.82;26.84
69982;BME280;57319;56.274;43.980;2024-03-22T11:32:56;99738.31;;;13.57;27.30
69982;BME280;57319;56.274;43.980;2024-03-22T11:35:22;99736.81;;;12.73;26.84
69982;BME280;57319;56.274;43.980;2024-03-22T11:37:49;99734.66;;;12.10;28.12
69982;BME280;57319;56.274;43.980;2024-03-22T11:40:16;99730.53;;;10.95;29.38
69982;BME280;57319;56.274;43.980;2024-03-22T11:42:49;99731.69;;;11.31;29.34
69982;BME280;57319;56.274;43.980;2024-03-22T11:45:17;99728.25;;;11.82;28.96
69982;BME280;57319;56.274;43.980;2024-03-22T11:47:44;99727.75;;;12.12;28.63
69982;BME280;57319;56.274;43.980;2024-03-22T11:50:12;99719.72;;;11.27;29.48
69982;BME280;57319;56.274;43.980;2024-03-22T11:52:40;99725.88;;;12.61;28.68
69982;BME280;57319;56.274;43.980;2024-03-22T11:55:07;99723.03;;;12.31;27.76
69982;BME280;57319;56.274;43.980;2024-03-22T11:57:33;99712.56;;;11.93;29.31
69982;BME280;57319;56.274;43.980;2024-03-22T12:00:00;99707.53;;;11.37;29.77
69982;BME280;57319;56.274;43.980;2024-03-22T12:02:27;99715.19;;;10.87;31.16
69982;BME280;57319;56.274;43.980;2024-03-22T12:04:54;99717.06;;;10.04;31.57
69982;BME280;57319;56.274;43.980;2024-03-22T12:07:21;99695.56;;;10.80;31.73
69982;BME280;57319;56.274;43.980;2024-03-22T12:09:47;99698.53;;;12.10;29.79
69982;BME280;57319;56.274;43.980;2024-03-22T12:12:13;99695.38;;;11.45;30.46
69982;BME280;57319;56.274;43.980;2024-03-22T12:14:39;99685.66;;;12.50;29.09
69982;BME280;57319;56.274;43.980;2024-03-22T12:17:08;99680.19;;;13.02;29.75
69982;BME280;57319;56.274;43.980;2024-03-22T12:19:34;99671.28;;;12.78;28.44
69982;BME280;57319;56.274;43.980;2024-03-22T12:22:00;99657.97;;;13.29;28.99
69982;BME280;57319;56.274;43.980;2024-03-22T12:24:26;99665.72;;;13.29;27.85
69982;BME280;57319;56.274;43.980;2024-03-22T12:26:55;99659.00;;;13.89;27.68
69982;BME280;57319;56.274;43.980;2024-03-22T12:29:21;99664.63;;;13.74;27.35
69982;BME280;57319;56.274;43.980;2024-03-22T12:31:50;99660.53;;;14.56;26.69
69982;BME280;57319;56.274;43.980;2024-03-22T12:34:17;99657.81;;;14.89;26.34
69982;BME280;57319;56.274;43.980;2024-03-22T12:36:44;99648.59;;;14.22;26.51
69982;BME280;57319;56.274;43.980;2024-03-22T12:39:11;99649.38;;;13.63;28.08
69982;BME280;57319;56.274;43.980;2024-03-22T12:41:38;99641.25;;;13.10;28.78
69982;BME280;57319;56.274;43.980;2024-03-22T12:44:04;99648.13;;;13.09;29.21
69982;BME280;57319;56.274;43.980;2024-03-22T12:46:31;99645.47;;;12.78;29.37
69982;BME280;57319;56.274;43.980;2024-03-22T12:49:00;99633.91;;;13.62;28.77